createdAt,value
2023-03-17T00:00:30.508Z,101215.25
2023-03-17T00:03:37.575Z,101212.41
2023-03-17T00:06:41.494Z,101208.19
2023-03-17T00:09:43.928Z,101212.09
2023-03-17T00:12:46.972Z,101208.75
2023-03-17T00:16:00.281Z,101205.31
2023-03-17T00:19:04.162Z,101204.78
2023-03-17T00:22:15.632Z,101202.94
2023-03-17T00:25:22.198Z,101201.53
2023-03-17T00:28:27.288Z,101192.72
2023-03-17T00:31:31.097Z,101194.13
2023-03-17T00:34:34.531Z,101193.44
2023-03-17T00:37:37.936Z,101190.88
2023-03-17T00:40:40.567Z,101185.31
2023-03-17T00:43:43.136Z,101187.47
2023-03-17T00:46:47.524Z,101188.50
2023-03-17T00:49:50.190Z,101188.72
2023-03-17T00:52:55.215Z,101185.28
2023-03-17T00:55:57.765Z,101182.47
2023-03-17T00:59:00.353Z,101192.66
2023-03-17T01:02:03.004Z,101189.28
2023-03-17T01:05:07.259Z,101188.44
2023-03-17T01:08:10.520Z,101193.50
2023-03-17T01:11:20.345Z,101190.94
2023-03-17T01:14:24.855Z,101189.91
2023-03-17T01:17:27.810Z,101198.00
2023-03-17T01:20:34.030Z,101192.44
2023-03-17T01:23:37.417Z,101190.03
2023-03-17T01:26:40.477Z,101194.00
2023-03-17T01:29:43.132Z,101196.94
2023-03-17T01:32:45.654Z,101203.88
2023-03-17T01:35:48.397Z,101202.84
2023-03-17T01:38:51.341Z,101197.59
2023-03-17T01:41:56.915Z,101205.16
2023-03-17T01:45:01.585Z,101200.44
2023-03-17T01:48:04.416Z,101192.47
2023-03-17T01:51:09.210Z,101189.13
2023-03-17T01:54:21.938Z,101190.28
2023-03-17T01:57:41.410Z,101191.22
2023-03-17T02:00:44.455Z,101188.50
2023-03-17T02:03:48.587Z,101194.44
2023-03-17T02:06:57.955Z,101192.69
2023-03-17T02:10:03.274Z,101198.34
2023-03-17T02:13:06.258Z,101207.59
2023-03-17T02:16:14.758Z,101221.59
2023-03-17T02:19:17.390Z,101230.31
2023-03-17T02:22:20.404Z,101236.81
2023-03-17T02:25:26.324Z,101235.31
2023-03-17T02:28:31.134Z,101238.78
2023-03-17T02:31:33.674Z,101242.56
2023-03-17T02:34:37.418Z,101237.00
2023-03-17T02:37:39.946Z,101232.06
2023-03-17T02:40:42.463Z,101227.88
2023-03-17T02:43:45.260Z,101232.16
2023-03-17T02:46:47.900Z,101231.16
2023-03-17T02:49:51.349Z,101224.31
2023-03-17T02:52:54.375Z,101224.84
2023-03-17T02:55:57.836Z,101221.78
2023-03-17T02:59:00.618Z,101240.56
2023-03-17T03:02:03.350Z,101236.25
2023-03-17T03:05:08.765Z,101235.19
2023-03-17T03:08:11.558Z,101226.09
2023-03-17T03:11:14.278Z,101231.63
2023-03-17T03:14:17.088Z,101226.16
2023-03-17T03:17:21.096Z,101229.91
2023-03-17T03:20:24.250Z,101228.13
2023-03-17T03:23:27.553Z,101233.78
2023-03-17T03:26:30.171Z,101233.34
2023-03-17T03:29:32.880Z,101229.50
2023-03-17T03:32:35.457Z,101231.91
2023-03-17T03:35:38.049Z,101238.16
2023-03-17T03:38:41.869Z,101243.16
2023-03-17T03:41:44.303Z,101238.13
2023-03-17T03:44:47.055Z,101221.00
2023-03-17T03:47:50.057Z,101229.81
2023-03-17T03:50:56.986Z,101229.81
2023-03-17T03:53:59.727Z,101226.63
2023-03-17T03:57:02.292Z,101223.28
2023-03-17T04:00:05.703Z,101229.16
2023-03-17T04:03:14.680Z,101217.53
2023-03-17T04:06:17.475Z,101225.94
2023-03-17T04:09:19.950Z,101227.84
2023-03-17T04:12:22.515Z,101229.66
2023-03-17T04:15:25.597Z,101218.75
2023-03-17T04:18:28.119Z,101221.34
2023-03-17T04:21:30.596Z,101229.56
2023-03-17T04:24:34.842Z,101227.75
2023-03-17T04:27:37.651Z,101225.63
2023-03-17T04:30:40.199Z,101227.63
2023-03-17T04:33:42.804Z,101231.28
2023-03-17T04:36:47.266Z,101221.31
2023-03-17T04:39:50.072Z,101222.25
2023-03-17T04:42:52.719Z,101218.47
2023-03-17T04:45:55.316Z,101219.34
2023-03-17T04:48:58.067Z,101234.38
2023-03-17T04:52:00.850Z,101239.63
2023-03-17T04:55:04.577Z,101244.56
2023-03-17T04:58:07.044Z,101244.94
2023-03-17T05:01:10.129Z,101250.47
2023-03-17T05:04:25.283Z,101247.47
2023-03-17T05:07:34.209Z,101247.47
2023-03-17T05:10:37.020Z,101248.94
2023-03-17T05:13:43.502Z,101238.94
2023-03-17T05:16:49.225Z,101242.09
2023-03-17T05:19:51.876Z,101250.78
2023-03-17T05:22:54.443Z,101246.47
2023-03-17T05:25:57.425Z,101254.13
2023-03-17T05:29:00.378Z,101259.91
2023-03-17T05:32:03.208Z,101264.34
2023-03-17T05:35:06.200Z,101264.69
2023-03-17T05:38:11.745Z,101262.22
2023-03-17T05:41:14.232Z,101258.69
2023-03-17T05:44:16.941Z,101251.16
2023-03-17T05:47:20.204Z,101242.03
2023-03-17T05:50:23.430Z,101237.22
2023-03-17T05:53:26.310Z,101257.56
2023-03-17T05:56:33.627Z,101254.13
2023-03-17T05:59:37.097Z,101251.41
2023-03-17T06:02:39.910Z,101254.22
2023-03-17T06:05:42.499Z,101256.59
2023-03-17T06:08:46.952Z,101256.59
2023-03-17T06:11:49.530Z,101258.16
2023-03-17T06:14:52.300Z,101250.34
2023-03-17T06:17:55.175Z,101267.53
2023-03-17T06:20:57.661Z,101267.25
2023-03-17T06:24:00.970Z,101263.75
2023-03-17T06:27:03.548Z,101267.00
2023-03-17T06:30:09.469Z,101275.91
2023-03-17T06:33:12.153Z,101274.75
2023-03-17T06:36:16.032Z,101274.22
2023-03-17T06:39:18.813Z,101270.34
2023-03-17T06:42:22.029Z,101275.38
2023-03-17T06:45:24.869Z,101277.91
2023-03-17T06:48:28.823Z,101274.56
2023-03-17T06:51:32.626Z,101282.84
2023-03-17T06:54:36.658Z,101283.06
2023-03-17T06:57:39.280Z,101298.63
2023-03-17T07:00:42.218Z,101287.25
2023-03-17T07:03:45.467Z,101300.75
2023-03-17T07:06:48.271Z,101297.63
2023-03-17T07:09:52.810Z,101297.22
2023-03-17T07:12:55.934Z,101310.69
2023-03-17T07:16:00.479Z,101299.97
2023-03-17T07:19:03.305Z,101298.41
2023-03-17T07:22:06.271Z,101299.03
2023-03-17T07:25:13.993Z,101300.03
2023-03-17T07:28:18.650Z,101303.28
2023-03-17T07:31:25.581Z,101298.28
2023-03-17T07:34:30.038Z,101290.88
2023-03-17T07:37:32.860Z,101298.00
2023-03-17T07:40:36.267Z,101291.84
2023-03-17T07:43:38.988Z,101294.09
2023-03-17T07:46:41.950Z,101286.09
2023-03-17T07:49:45.302Z,101294.75
2023-03-17T07:52:48.145Z,101294.75
2023-03-17T07:55:51.042Z,101290.44
2023-03-17T07:58:55.194Z,101288.34
2023-03-17T08:01:59.708Z,101280.97
2023-03-17T08:05:03.724Z,101278.84
2023-03-17T08:08:06.735Z,101282.59
2023-03-17T08:11:09.684Z,101288.34
2023-03-17T08:14:13.259Z,101276.13
2023-03-17T08:17:17.095Z,101274.53
2023-03-17T08:20:20.480Z,101270.44
2023-03-17T08:23:23.871Z,101268.19
2023-03-17T08:26:27.092Z,101272.78
2023-03-17T08:29:30.562Z,101272.94
2023-03-17T08:32:33.438Z,101267.72
2023-03-17T08:35:37.477Z,101272.53
2023-03-17T08:38:41.813Z,101270.59
2023-03-17T08:41:44.432Z,101261.75
2023-03-17T08:44:47.402Z,101264.66
2023-03-17T08:47:50.881Z,101266.34
2023-03-17T08:50:53.762Z,101264.06
2023-03-17T08:53:56.931Z,101260.78
2023-03-17T08:57:01.753Z,101260.25
2023-03-17T09:00:11.108Z,101260.09
2023-03-17T09:03:14.650Z,101259.03
2023-03-17T09:06:18.097Z,101265.72
2023-03-17T09:09:20.802Z,101262.25
2023-03-17T09:12:23.283Z,101263.25
2023-03-17T09:15:25.997Z,101266.78
2023-03-17T09:18:28.567Z,101275.41
2023-03-17T09:21:32.105Z,101265.78
2023-03-17T09:24:34.811Z,101268.84
2023-03-17T09:27:37.576Z,101263.53
2023-03-17T09:30:43.179Z,101262.88
2023-03-17T09:33:45.829Z,101254.50
2023-03-17T09:36:50.075Z,101249.19
2023-03-17T09:39:52.693Z,101242.41
2023-03-17T09:43:16.949Z,101248.94
2023-03-17T09:46:35.876Z,101237.59
2023-03-17T09:49:47.430Z,101247.25
2023-03-17T09:52:52.461Z,101229.59
2023-03-17T09:55:59.336Z,101231.91
2023-03-17T09:59:29.784Z,101230.94
2023-03-17T10:02:38.309Z,101224.41
2023-03-17T10:05:43.468Z,101214.78
2023-03-17T10:09:10.846Z,101220.44
2023-03-17T10:12:23.442Z,101221.91
2023-03-17T10:15:42.144Z,101216.56
2023-03-17T10:18:58.631Z,101224.25
2023-03-17T10:22:16.041Z,101216.25
2023-03-17T10:25:23.903Z,101217.06
2023-03-17T10:28:32.621Z,101212.50
2023-03-17T10:31:38.219Z,101198.97
2023-03-17T10:34:42.496Z,101185.97
2023-03-17T10:37:48.078Z,101192.06
2023-03-17T10:41:00.324Z,101190.78
2023-03-17T10:44:10.580Z,101177.75
2023-03-17T10:47:49.018Z,101186.19
2023-03-17T10:50:52.953Z,101180.19
2023-03-17T10:54:00.879Z,101183.34
2023-03-17T10:57:08.270Z,101176.25
2023-03-17T11:00:20.097Z,101174.69
2023-03-17T11:03:27.290Z,101164.09
2023-03-17T11:06:44.379Z,101176.41
2023-03-17T11:09:51.705Z,101159.84
2023-03-17T11:13:02.046Z,101149.19
2023-03-17T11:16:19.003Z,101147.88
2023-03-17T11:19:41.176Z,101145.66
2023-03-17T11:22:56.622Z,101134.25
2023-03-17T11:26:44.139Z,101138.38
2023-03-17T11:29:51.082Z,101131.25
2023-03-17T11:33:02.610Z,101127.16
2023-03-17T11:36:23.640Z,101122.91
2023-03-17T11:39:29.018Z,101115.63
2023-03-17T11:42:43.022Z,101114.25
2023-03-17T11:46:00.683Z,101114.50
2023-03-17T11:49:27.648Z,101095.78
2023-03-17T11:52:46.264Z,101091.28
2023-03-17T11:55:57.973Z,101074.91
2023-03-17T11:59:03.669Z,101082.56
2023-03-17T12:02:16.084Z,101072.09
2023-03-17T12:05:30.600Z,101066.88
2023-03-17T12:08:46.208Z,101046.78
2023-03-17T12:11:51.303Z,101040.09
2023-03-17T12:14:56.790Z,101050.75
2023-03-17T12:18:43.276Z,101051.28
2023-03-17T12:22:07.378Z,101056.78
2023-03-17T12:25:18.195Z,101054.66
2023-03-17T12:28:27.417Z,101049.06
2023-03-17T12:31:36.721Z,101037.78
2023-03-17T12:34:44.973Z,101036.38
2023-03-17T12:37:49.689Z,101029.25
2023-03-17T12:41:23.822Z,101029.81
2023-03-17T12:44:44.763Z,101022.78
2023-03-17T12:47:52.273Z,101025.91
2023-03-17T12:51:19.497Z,101016.75
2023-03-17T12:54:28.450Z,101017.00
2023-03-17T12:57:39.892Z,101011.41
2023-03-17T13:00:50.775Z,101006.47
2023-03-17T13:04:00.395Z,100998.66
2023-03-17T13:07:15.785Z,100999.94
2023-03-17T13:10:37.471Z,101000.44
2023-03-17T13:14:05.753Z,101002.50
2023-03-17T13:17:35.124Z,100988.31
2023-03-17T13:20:41.952Z,100987.56
2023-03-17T13:23:59.953Z,100985.28
2023-03-17T13:27:04.696Z,100993.25
2023-03-17T13:30:27.001Z,100982.28
2023-03-17T13:33:33.158Z,100991.31
2023-03-17T13:36:52.086Z,100990.22
2023-03-17T13:40:17.660Z,100986.84
2023-03-17T13:43:43.575Z,100993.47
2023-03-17T13:46:48.414Z,100984.78
2023-03-17T13:49:59.641Z,100972.88
2023-03-17T13:53:08.718Z,100981.66
2023-03-17T13:56:36.073Z,100979.78
2023-03-17T14:00:21.591Z,100980.22
2023-03-17T14:03:44.781Z,100971.28
2023-03-17T14:06:50.780Z,100966.47
2023-03-17T14:09:59.654Z,100955.94
2023-03-17T14:13:17.079Z,100963.50
2023-03-17T14:16:36.791Z,100945.84
2023-03-17T14:19:42.340Z,100942.34
2023-03-17T14:22:54.063Z,100933.19
2023-03-17T14:25:58.170Z,100929.22
2023-03-17T14:29:02.996Z,100926.16
2023-03-17T14:32:18.682Z,100925.25
2023-03-17T14:35:21.742Z,100930.38
2023-03-17T14:38:38.715Z,100918.28
2023-03-17T14:41:41.681Z,100915.59
2023-03-17T14:44:44.453Z,100916.66
2023-03-17T14:47:47.207Z,100913.91
2023-03-17T14:50:53.592Z,100907.66
2023-03-17T14:54:05.414Z,100907.84
2023-03-17T14:57:14.417Z,100892.28
2023-03-17T15:00:37.518Z,100893.47
2023-03-17T15:03:42.322Z,100887.47
2023-03-17T15:06:54.122Z,100893.66
2023-03-17T15:10:02.226Z,100891.59
2023-03-17T15:13:06.483Z,100876.63
2023-03-17T15:16:34.279Z,100871.06
2023-03-17T15:19:44.007Z,100880.34
2023-03-17T15:23:03.172Z,100866.22
2023-03-17T15:26:09.982Z,100862.38
2023-03-17T15:29:13.009Z,100858.59
2023-03-17T15:32:20.396Z,100865.31
2023-03-17T15:35:23.074Z,100858.66
2023-03-17T15:38:26.782Z,100867.28
2023-03-17T15:41:29.485Z,100863.53
2023-03-17T15:44:32.168Z,100856.00
2023-03-17T15:47:39.860Z,100855.56
2023-03-17T15:50:42.589Z,100849.41
2023-03-17T15:53:45.300Z,100858.22
2023-03-17T15:56:47.905Z,100848.84
2023-03-17T15:59:50.711Z,100846.63
2023-03-17T16:02:56.250Z,100850.97
2023-03-17T16:05:59.788Z,100843.66
2023-03-17T16:09:02.265Z,100846.03
2023-03-17T16:12:05.462Z,100850.31
2023-03-17T16:15:22.551Z,100853.66
2023-03-17T16:18:32.914Z,100854.34
2023-03-17T16:21:37.233Z,100857.06
2023-03-17T16:24:40.409Z,100854.63
2023-03-17T16:27:42.892Z,100855.31
2023-03-17T16:30:46.630Z,100852.22
2023-03-17T16:33:50.750Z,100859.25
2023-03-17T16:36:54.630Z,100865.25
2023-03-17T16:39:57.464Z,100872.47
2023-03-17T16:43:00.181Z,100865.50
2023-03-17T16:46:04.183Z,100865.69
2023-03-17T16:49:06.838Z,100870.19
2023-03-17T16:52:10.632Z,100870.38
2023-03-17T16:55:14.399Z,100862.72
2023-03-17T16:58:21.851Z,100865.53
2023-03-17T17:01:27.385Z,100867.34
2023-03-17T17:04:31.224Z,100866.66
2023-03-17T17:07:33.705Z,100870.09
2023-03-17T17:10:37.940Z,100867.97
2023-03-17T17:13:43.117Z,100869.03
2023-03-17T17:16:46.993Z,100872.81
2023-03-17T17:19:49.950Z,100877.69
2023-03-17T17:22:52.492Z,100876.59
2023-03-17T17:25:55.689Z,100874.16
2023-03-17T17:28:58.976Z,100879.75
2023-03-17T17:32:01.858Z,100875.97
2023-03-17T17:35:05.730Z,100873.16
2023-03-17T17:38:28.897Z,100878.13
2023-03-17T17:41:32.764Z,100877.66
2023-03-17T17:44:36.946Z,100876.00
2023-03-17T17:47:40.012Z,100873.50
2023-03-17T17:50:43.467Z,100867.19
2023-03-17T17:53:46.420Z,100875.97
2023-03-17T17:56:52.325Z,100872.16
2023-03-17T17:59:56.449Z,100864.88
2023-03-17T18:02:59.685Z,100874.13
2023-03-17T18:06:02.507Z,100874.94
2023-03-17T18:09:05.425Z,100874.47
2023-03-17T18:12:09.068Z,100880.91
2023-03-17T18:15:12.806Z,100882.25
2023-03-17T18:18:16.178Z,100877.06
2023-03-17T18:21:19.075Z,100877.41
2023-03-17T18:24:21.987Z,100873.38
2023-03-17T18:27:24.749Z,100881.00
2023-03-17T18:30:30.574Z,100880.97
2023-03-17T18:33:33.863Z,100875.44
2023-03-17T18:36:36.406Z,100874.94
2023-03-17T18:39:41.112Z,100881.00
2023-03-17T18:42:44.145Z,100882.59
2023-03-17T18:45:46.846Z,100880.38
2023-03-17T18:48:49.943Z,100877.66
2023-03-17T18:51:53.663Z,100881.56
2023-03-17T18:54:56.632Z,100887.66
2023-03-17T18:57:59.482Z,100880.47
2023-03-17T19:01:03.202Z,100883.75
2023-03-17T19:04:06.770Z,100880.34
2023-03-17T19:07:09.558Z,100879.69
2023-03-17T19:10:13.027Z,100880.97
2023-03-17T19:13:16.489Z,100884.59
2023-03-17T19:16:19.394Z,100881.28
2023-03-17T19:19:23.374Z,100873.78
2023-03-17T19:22:26.065Z,100877.06
2023-03-17T19:25:29.027Z,100877.13
2023-03-17T19:28:33.530Z,100877.44
2023-03-17T19:31:41.683Z,100882.03
2023-03-17T19:34:44.739Z,100876.00
2023-03-17T19:37:47.196Z,100883.09
2023-03-17T19:40:49.813Z,100874.41
2023-03-17T19:43:52.666Z,100873.72
2023-03-17T19:46:56.038Z,100874.88
2023-03-17T19:49:59.157Z,100869.34
2023-03-17T19:53:02.256Z,100865.41
2023-03-17T19:56:06.574Z,100862.22
2023-03-17T19:59:09.648Z,100860.16
2023-03-17T20:02:15.678Z,100855.91
2023-03-17T20:05:18.665Z,100855.81
2023-03-17T20:08:22.859Z,100846.00
2023-03-17T20:11:25.690Z,100845.06
2023-03-17T20:14:29.913Z,100846.47
2023-03-17T20:17:32.971Z,100852.88
2023-03-17T20:20:35.706Z,100854.72
2023-03-17T20:23:38.324Z,100856.94
2023-03-17T20:26:43.369Z,100855.56
2023-03-17T20:29:48.666Z,100853.91
2023-03-17T20:33:01.263Z,100855.03
2023-03-17T20:36:05.254Z,100858.50
2023-03-17T20:39:08.444Z,100858.41
2023-03-17T20:42:15.310Z,100856.16
2023-03-17T20:45:19.739Z,100852.97
2023-03-17T20:48:23.431Z,100862.41
2023-03-17T20:51:27.261Z,100858.72
2023-03-17T20:54:30.162Z,100859.69
2023-03-17T20:57:36.524Z,100861.25
2023-03-17T21:00:39.370Z,100852.13
2023-03-17T21:03:43.758Z,100850.72
2023-03-17T21:06:47.000Z,100848.50
2023-03-17T21:09:49.725Z,100844.50
2023-03-17T21:12:52.790Z,100843.81
2023-03-17T21:15:56.807Z,100843.09
2023-03-17T21:19:00.165Z,100847.16
2023-03-17T21:22:03.922Z,100842.88
2023-03-17T21:25:09.047Z,100839.53
2023-03-17T21:28:13.746Z,100838.44
2023-03-17T21:31:17.539Z,100839.94
2023-03-17T21:34:21.331Z,100837.03
2023-03-17T21:37:24.372Z,100836.50
2023-03-17T21:40:30.240Z,100829.81
2023-03-17T21:43:33.874Z,100831.06
2023-03-17T21:46:36.508Z,100823.44
2023-03-17T21:49:39.548Z,100825.94
2023-03-17T21:52:43.805Z,100827.03
2023-03-17T21:55:46.424Z,100828.16
2023-03-17T21:58:50.016Z,100839.28
2023-03-17T22:01:53.134Z,100834.81
2023-03-17T22:04:56.974Z,100837.47
2023-03-17T22:07:59.580Z,100847.16
2023-03-17T22:11:07.660Z,100843.00
2023-03-17T22:14:12.165Z,100842.84
2023-03-17T22:17:14.684Z,100844.19
2023-03-17T22:20:18.894Z,100847.25
2023-03-17T22:23:21.717Z,100843.78
2023-03-17T22:26:24.280Z,100842.81
2023-03-17T22:29:27.165Z,100844.34
2023-03-17T22:32:30.112Z,100838.63
2023-03-17T22:35:33.511Z,100831.00
2023-03-17T22:38:36.484Z,100832.78
2023-03-17T22:41:39.392Z,100838.31
2023-03-17T22:44:41.857Z,100836.81
2023-03-17T22:47:44.359Z,100830.66
2023-03-17T22:50:46.846Z,100828.28
2023-03-17T22:53:51.058Z,100825.34
2023-03-17T22:56:53.827Z,100824.41
2023-03-17T22:59:58.436Z,100826.47
2023-03-17T23:03:01.540Z,100824.09
2023-03-17T23:06:05.256Z,100830.72
2023-03-17T23:09:08.490Z,100829.31
2023-03-17T23:12:11.566Z,100819.38
2023-03-17T23:15:14.734Z,100814.91
2023-03-17T23:18:17.551Z,100823.63
2023-03-17T23:21:27.871Z,100833.34
2023-03-17T23:24:30.489Z,100823.88
2023-03-17T23:27:32.997Z,100826.06
2023-03-17T23:30:36.435Z,100825.91
2023-03-17T23:33:39.843Z,100821.59
2023-03-17T23:36:42.378Z,100823.69
2023-03-17T23:39:44.909Z,100821.66
2023-03-17T23:42:49.154Z,100823.03
2023-03-17T23:45:53.279Z,100831.47
2023-03-17T23:48:56.343Z,100824.28
2023-03-17T23:51:58.834Z,100814.56
2023-03-17T23:55:02.947Z,100815.94
2023-03-17T23:58:05.463Z,100805.41
